Logo AVAMET
Benvolgut visitant, si us plau, ingressa Recuperar contrasenya

Xàbia platja de l′Arenal

Dades diàries. Acumulats / Últims 30 dies disponibles

Data Temperatura (°C) Humitat rel. (%) Pressió rel. (hPa) Vent (km/h) Precipitació
Mínima Mitjana Màxima Amplitud
tèrmica
Mínima Mitjana Màxima Mínima Mitjana Màxima Predom. Mitjana Ràfega
màxima
Total
(mm)
Índex-n
Mínima Mitjana Màxima Mínima Mitjana Màxima n
0 a 1
P0 max
mm 5'
Dades mensuals acumulades fins l'últim dia disponible
01/2020 2,7 6,7 10,2 11,4 13,4 16,2 20,9 18,2 39 80 97 1.011 1.024 1.033   5,2 85,3 87,6
Dades anuals acumulades fins l'últim dia disponible
2020 2,7 6,7 10,2 11,4 13,4 16,2 20,9 18,2 39 80 97 1.011 1.024 1.033   5,2 85,3 87,6
Últims 30 dies disponibles
27-01-2020 7,6     12,4     17,3 9,7 50 70 82 1.020 1.022 1.024 W 3,1 25,7 0,0
26-01-2020 8,6     12,9     19,1 10,5 51 78 92 1.017 1.020 1.023 W 1,8 22,5 0,0
25-01-2020 10,2     13,0     15,7 5,5 78 88 93 1.016 1.018 1.020 W 1,6 24,1 0,0
24-01-2020 8,3     12,3     15,5 7,2 80 88 94 1.019 1.020 1.022 W 1,3 12,9 0,2
23-01-2020 7,0     10,7     14,1 7,1 79 87 92 1.018 1.020 1.022 W 1,6 11,3 0,0
22-01-2020 8,1     11,4     15,5 7,4 76 87 94 1.015 1.017 1.018 W 1,8 24,1 0,0
21-01-2020 9,7     13,4     16,4 6,7 73 86 96 1.011 1.013 1.018 E 16,7 69,2 2,8
20-01-2020 8,6     11,2     13,4 4,8 86 94 97 1.014 1.016 1.018 NE 25,9 85,3 64,8
19-01-2020 8,9     11,9     13,9 5,0 67 82 96 1.012 1.015 1.019 NE 19,0 80,5 10,4
18-01-2020 9,2     14,1     17,9 8,7 51 66 78 1.019 1.026 1.031 W 3,4 27,4 0,0
17-01-2020 6,2     13,9     20,9 14,7 40 61 88 1.026 1.028 1.030 WNW 3,1 25,7 0,0
16-01-2020 6,2     11,8     17,1 10,9 63 79 89 1.025 1.026 1.028 W 2,6 16,1 0,0
15-01-2020 5,2     11,6     19,8 14,6 39 69 84 1.022 1.024 1.026 W 2,4 16,1 0,0
14-01-2020 3,9     9,8     16,7 12,8 51 72 83 1.020 1.021 1.023 W 3,9 16,1 0,0
13-01-2020 2,7     9,5     15,8 13,1 49 73 89 1.021 1.024 1.029 W 5,3 29,0 0,0
12-01-2020 3,7     8,8     15,2 11,5 54 77 90 1.027 1.029 1.030 W 3,9 20,9 0,0
11-01-2020 6,7     12,1     14,5 7,8 67 74 89 1.027 1.029 1.030 NW 5,8 29,0 0,0
10-01-2020 7,2     11,7     14,2 7,0 60 82 95 1.022 1.024 1.027 NW 8,0 48,3 9,4 0,39 1,40
09-01-2020 8,0     11,8     15,7 7,7 70 84 90 1.023 1.026 1.029 W 2,6 30,6 0,0
08-01-2020 5,1     10,6     15,6 10,5 72 83 90 1.027 1.028 1.030 O 3,8 22,5 0,0
07-01-2020 6,4     10,4     15,6 9,2 71 85 93 1.027 1.029 1.031 W 3,7 19,3 0,0
06-01-2020 6,3     10,9     14,9 8,6 74 83 91 1.027 1.028 1.029 W 2,6 14,5 0,0
05-01-2020 5,2     10,5     18,2 13,0 50 75 86 1.026 1.028 1.030 W 3,2 14,5 0,0
04-01-2020 6,2     10,7     16,1 9,9 64 80 88 1.030 1.031 1.033 W 2,9 14,5 0,0
03-01-2020 4,9     10,1     15,5 10,6 73 85 91 1.028 1.030 1.031 W 2,9 14,5 0,0
02-01-2020 5,9     10,9     16,8 10,9 62 80 93 1.029 1.030 1.032 W 4,7 25,7 0,0
01-01-2020 5,4     9,8     14,8 9,4 76 87 92 1.030 1.031 1.032 W 2,9 12,9 0,0
31-12-2019 6,4     10,0     15,6 9,2 73 86 93 1.031 1.031 1.033 SO 2,0 12,9 0,0
30-12-2019 8,1     12,1     15,8 7,7 70 81 92 1.030 1.031 1.033 W 2,1 14,5 0,0
29-12-2019 7,4     10,8     15,8 8,4 74 85 91 1.029 1.031 1.033 W 2,3 14,5 0,0
Últims 13 mesos disponibles
12/2019 6,4 10,2 16,7 14,4 15,2 18,7 23,7 17,3 47 74 90 1.003 1.018 1.031 W 4,8 61,2 99,6
11/2019 5,8 12,2 19,9 16,1 14,9 20,4 28,8 23,0 41 58 84 998 1.010 1.017 W 4,7 57,9 12,4
10/2019 10,2 16,1 21,2 20,6 18,4 25,0 31,8 21,6 45 73 86 1.007 1.015 1.020 W 3,9 59,5 62,2
09/2019 14,9 20,5 24,6 24,3 23,3 27,8 34,3 19,4 62 78 90 1.009 1.016 1.022 W 6,2 99,8 179,4
08/2019 19,8 22,9 26,7 26,9 27,4 30,4 38,7 18,9 56 74 82 1.009 1.014 1.018 W 5,6 43,5 15,4
07/2019 20,6 22,9 25,8 27,0 27,4 31,0 40,4 19,8 50 71 81 1.004 1.012 1.019 SE 4,8 57,9 2,8
06/2019 13,0 18,4 23,2 22,7 20,4 26,6 35,6 22,6 51 71 84 1.007 1.014 1.021 WNW 5,6 43,5 0,2
05/2019 11,3 14,9 20,0 19,0 18,5 23,0 29,8 18,5 54 71 82 1.004 1.014 1.023 WSW 5,4 43,5 11,4
04/2019 8,4 12,1 15,2 16,0 15,4 20,1 28,0 19,6 47 71 90 998 1.012 1.024 WNW 5,7 54,7 337,0
03/2019 7,1 9,6 14,3 14,5 13,6 18,9 27,7 20,6 47 66 88 1.009 1.022 1.029 WSW 5,1 46,7 28,4
02/2019 4,7 7,5 12,2 12,3 12,0 17,6 21,9 17,2 36 67 82 995 1.024 1.032 WSW 4,5 54,7 0,8
01/2019 2,3 7,0 12,2 11,6 11,1 16,8 21,8 19,5 38 64 84 1.002 1.018 1.029 WSW 4,5 59,5 3,2
12/2018 5,3 8,5 10,5 13,0 14,2 18,5 21,8 16,5 57 76 86 1.008 1.024 1.030 WSW 2,9 45,1 20,8
Tots els anys disponibles
2019 2,3 14,6 26,7 18,8 11,1 23,0 40,4 38,1 36 70 90 995 1.016 1.032 W 5,0 99,8 752,8
2018 3,0 14,7 27,2 18,8 9,7 23,0 37,6 34,6 43 75 91 998 1.017 1.030 WSW 4,7 69,2 650,6
2017 0,7 14,5 27,6 18,7 10,4 22,9 34,4 33,7 5,1 80,5 480,4
Temperatura (°C)
Humitat relativa (%)
Velocitat del vent i ràfega màxima (km/h)
Direcció del vent (°)
Pressió (hPa)
Precipitació (mm)
Nota sobre les dades: s'avisa a l'usuari de la provisionalitat i no oficialitat d'aquestes dades
Logo AVAMET blanc
Web allotjada a Sollutia
Llicència de Creative CommonsLa web d'AVAMET i els seus continguts estan subjectes a una llicència de
Reconeixement - No Comercial - Compartir igual
Últimes estacions: Xixona - Els Ameradors (Soci), Agres - El Tossal (Soci), Xàbia - Bevenguts (MeteoXàbia), Llíria (Aj. Soci/Inforatge), Orihuela - Lo Capitán, Cox & Guardamar del Segura - horta (Meteorihuela), l'Alcúdia - Carriona & el Real de Gandia (Inforatge), Benicàssim - les Vil·les (Soci),  l'Alfàs del Pi - l'Albir (Soci), - - -